Climatologie pour Saint-Brevin les Pins
Jour • Résumé pour juin 11, 2017 Système :  Métrique    Anglais   Mixte
« - 1 jour
+ 1 jour »
Jour Semaine Mois Année Personnalisé
  Maximum : Minimum : Moyenne :
Température sous abri : 22.3 °C 12.2 °C 17.1 °C
Point de rosée : 19.2 °C 11.5 °C 14.6 °C
Humidité : 98 % 58 % 86 %
Vitesse du vent : 25.7 km/h 0.0 km/h 5.6 km/h
Rafale : 29.0 km/h - -
Direction :- - West
Pression : 1020.5 hPa 1017.5 hPa -
Précipitations : 0.0 mm    
Historical Graphs
 
 
Tableau de données pour juin 11, 2017
Heure Tempé Pt rosée Pression Vent Vitesse Rafale Humidité Taux pluie (/hr) Soleil
00:00 14.2 °C 12.9 °C 1019.2 hPa Calm   3.2 km/h 92 % 0.0 mm 0 W/m2
00:05 14.1 °C 12.8 °C 1019.2 hPa Calm   1.6 km/h 92 % 0.0 mm 0 W/m2
00:10 14.1 °C 12.8 °C 1019.2 hPa Calm   3.2 km/h 92 % 0.0 mm 0 W/m2
00:15 14.1 °C 12.9 °C 1019.2 hPa Calm   3.2 km/h 93 % 0.0 mm 0 W/m2
00:25 14.1 °C 12.9 °C 1019.2 hPa Calm     93 % 0.0 mm 0 W/m2
00:30 14.0 °C 12.9 °C 1018.8 hPa Calm   1.6 km/h 93 % 0.0 mm 0 W/m2
00:35 14.0 °C 12.9 °C 1018.8 hPa Calm   1.6 km/h 93 % 0.0 mm 0 W/m2
00:40 13.9 °C 12.8 °C 1018.8 hPa Calm     93 % 0.0 mm 0 W/m2
00:45 13.9 °C 12.8 °C 1018.8 hPa Calm     93 % 0.0 mm 0 W/m2
00:50 13.9 °C 12.9 °C 1018.8 hPa Calm     94 % 0.0 mm 0 W/m2
00:55 13.8 °C 12.9 °C 1018.8 hPa Calm     94 % 0.0 mm 0 W/m2
01:00 13.8 °C 12.8 °C 1018.5 hPa Calm     94 % 0.0 mm 0 W/m2
01:05 13.8 °C 12.8 °C 1018.8 hPa Calm     94 % 0.0 mm 0 W/m2
01:10 13.7 °C 12.7 °C 1018.8 hPa Calm     94 % 0.0 mm 0 W/m2
01:15 13.6 °C 12.6 °C 1018.8 hPa Calm     94 % 0.0 mm 0 W/m2
01:20 13.4 °C 12.5 °C 1018.8 hPa Calm     94 % 0.0 mm 0 W/m2
01:25 13.4 °C 12.5 °C 1018.5 hPa Calm     94 % 0.0 mm 0 W/m2
01:30 13.3 °C 12.5 °C 1018.5 hPa Calm     95 % 0.0 mm 0 W/m2
01:35 13.4 °C 12.6 °C 1018.5 hPa Calm     95 % 0.0 mm 0 W/m2
01:40 13.4 °C 12.6 °C 1018.5 hPa Calm     95 % 0.0 mm 0 W/m2
01:45 13.3 °C 12.5 °C 1018.5 hPa Calm     95 % 0.0 mm 0 W/m2
01:50 13.3 °C 12.5 °C 1018.5 hPa Calm     95 % 0.0 mm 0 W/m2
01:55 13.3 °C 12.7 °C 1018.5 hPa Calm     96 % 0.0 mm 0 W/m2
02:00 13.3 °C 12.5 °C 1018.5 hPa Calm     95 % 0.0 mm 0 W/m2
02:05 13.3 °C 12.5 °C 1018.5 hPa Calm     95 % 0.0 mm 0 W/m2
02:10 13.3 °C 12.5 °C 1018.5 hPa Calm     95 % 0.0 mm 0 W/m2
02:15 13.2 °C 12.4 °C 1018.5 hPa Calm     95 % 0.0 mm 0 W/m2
02:20 13.2 °C 12.5 °C 1018.5 hPa Calm     96 % 0.0 mm 0 W/m2
02:25 13.1 °C 12.5 °C 1018.5 hPa Calm     96 % 0.0 mm 0 W/m2
02:30 13.2 °C 12.5 °C 1018.5 hPa Calm     96 % 0.0 mm 0 W/m2
02:35 13.1 °C 12.4 °C 1018.2 hPa Calm     96 % 0.0 mm 0 W/m2
02:40 13.1 °C 12.4 °C 1018.2 hPa Calm     96 % 0.0 mm 0 W/m2
02:45 13.0 °C 12.4 °C 1018.5 hPa Calm     96 % 0.0 mm 0 W/m2
02:50 12.9 °C 12.3 °C 1018.2 hPa Calm     96 % 0.0 mm 0 W/m2
02:55 13.2 °C 12.5 °C 1018.2 hPa Calm     96 % 0.0 mm 0 W/m2
03:00 13.2 °C 12.6 °C 1018.2 hPa Calm     96 % 0.0 mm 0 W/m2
03:05 13.1 °C 12.4 °C 1018.2 hPa Calm     96 % 0.0 mm 0 W/m2
03:15 13.1 °C 12.4 °C 1018.2 hPa Calm     96 % 0.0 mm 0 W/m2
03:20 12.9 °C 12.3 °C 1018.2 hPa Calm     96 % 0.0 mm 0 W/m2
03:25 12.9 °C 12.3 °C 1017.8 hPa Calm     96 % 0.0 mm 0 W/m2
03:30 12.8 °C 12.2 °C 1017.8 hPa Calm     96 % 0.0 mm 0 W/m2
03:35 12.8 °C 12.2 °C 1017.8 hPa Calm     96 % 0.0 mm 0 W/m2
03:40 12.8 °C 12.2 °C 1017.8 hPa Calm     96 % 0.0 mm 0 W/m2
03:45 12.8 °C 12.2 °C 1017.8 hPa Calm     96 % 0.0 mm 0 W/m2
03:50 12.7 °C 12.0 °C 1017.8 hPa Calm     96 % 0.0 mm 0 W/m2
03:55 12.7 °C 12.0 °C 1017.8 hPa Calm     96 % 0.0 mm 0 W/m2
04:00 12.6 °C 12.0 °C 1017.8 hPa Calm     96 % 0.0 mm 0 W/m2
04:05 12.8 °C 12.3 °C 1017.8 hPa Calm   1.6 km/h 97 % 0.0 mm 0 W/m2
04:10 12.7 °C 12.1 °C 1017.8 hPa Calm   1.6 km/h 96 % 0.0 mm 0 W/m2
04:15 12.8 °C 12.2 °C 1017.8 hPa Calm     96 % 0.0 mm 0 W/m2
04:20 12.7 °C 12.1 °C 1017.8 hPa Calm     96 % 0.0 mm 0 W/m2
04:25 12.7 °C 12.1 °C 1017.8 hPa Calm   1.6 km/h 96 % 0.0 mm 0 W/m2
04:30 12.7 °C 12.0 °C 1017.8 hPa Calm   1.6 km/h 96 % 0.0 mm 0 W/m2
04:35 12.6 °C 11.9 °C 1017.8 hPa Calm     96 % 0.0 mm 0 W/m2
04:40 12.6 °C 12.0 °C 1017.8 hPa Calm     96 % 0.0 mm 0 W/m2
04:45 12.3 °C 11.7 °C 1017.8 hPa Calm     96 % 0.0 mm 0 W/m2
04:50 12.3 °C 11.7 °C 1017.8 hPa Calm     96 % 0.0 mm 0 W/m2
04:55 12.3 °C 11.7 °C 1017.8 hPa Calm     96 % 0.0 mm 0 W/m2
05:00 12.3 °C 11.9 °C 1017.8 hPa Calm     97 % 0.0 mm 0 W/m2
05:05 12.4 °C 11.9 °C 1017.8 hPa Calm     97 % 0.0 mm 0 W/m2
05:10 12.3 °C 11.7 °C 1017.8 hPa Calm     96 % 0.0 mm 0 W/m2
05:20 12.2 °C 11.5 °C 1017.8 hPa Calm     96 % 0.0 mm 0 W/m2
05:25 12.2 °C 11.7 °C 1017.8 hPa Calm     97 % 0.0 mm 0 W/m2
05:30 12.4 °C 12.0 °C 1017.8 hPa Calm     97 % 0.0 mm 0 W/m2
05:35 12.4 °C 12.0 °C 1017.8 hPa Calm     97 % 0.0 mm 0 W/m2
05:40 12.5 °C 12.0 °C 1017.8 hPa Calm     97 % 0.0 mm 0 W/m2
05:45 12.3 °C 11.7 °C 1017.8 hPa Calm     96 % 0.0 mm 0 W/m2
05:50 12.3 °C 11.7 °C 1017.5 hPa Calm     96 % 0.0 mm 0 W/m2
05:55 12.5 °C 12.0 °C 1017.5 hPa Calm     97 % 0.0 mm 0 W/m2
06:00 12.4 °C 12.0 °C 1017.5 hPa SSW 1.6 km/h 3.2 km/h 97 % 0.0 mm 0 W/m2
06:05 12.4 °C 12.0 °C 1017.8 hPa Calm   3.2 km/h 97 % 0.0 mm 0 W/m2
06:10 12.6 °C 12.1 °C 1017.8 hPa Calm   1.6 km/h 97 % 0.0 mm 0 W/m2
06:15 12.7 °C 12.2 °C 1017.5 hPa Calm   1.6 km/h 97 % 0.0 mm 0 W/m2
06:20 12.6 °C 11.9 °C 1017.5 hPa Calm   1.6 km/h 96 % 0.0 mm 5 W/m2
06:25 12.6 °C 12.1 °C 1017.5 hPa Calm     97 % 0.0 mm 7 W/m2
06:30 12.5 °C 12.0 °C 1017.5 hPa Calm   1.6 km/h 97 % 0.0 mm 11 W/m2
06:40 12.6 °C 12.1 °C 1017.5 hPa SSW 3.2 km/h 3.2 km/h 97 % 0.0 mm 18 W/m2
06:45 12.6 °C 12.1 °C 1017.5 hPa Calm   3.2 km/h 97 % 0.0 mm 21 W/m2
06:50 12.8 °C 12.3 °C 1017.5 hPa Calm   3.2 km/h 97 % 0.0 mm 26 W/m2
06:55 12.7 °C 12.3 °C 1017.5 hPa Calm     97 % 0.0 mm 30 W/m2
07:00 12.7 °C 12.3 °C 1017.5 hPa Calm     97 % 0.0 mm 37 W/m2
07:05 12.8 °C 12.3 °C 1017.8 hPa Calm     97 % 0.0 mm 26 W/m2
07:10 12.8 °C 12.4 °C 1017.8 hPa Calm     97 % 0.0 mm 28 W/m2
07:15 13.1 °C 12.6 °C 1017.8 hPa Calm     97 % 0.0 mm 33 W/m2
07:20 13.2 °C 12.8 °C 1017.8 hPa Calm     97 % 0.0 mm 51 W/m2
07:25 13.3 °C 12.9 °C 1017.8 hPa Calm     97 % 0.0 mm 74 W/m2
07:30 13.7 °C 13.4 °C 1017.8 hPa Calm     98 % 0.0 mm 62 W/m2
07:35 13.9 °C 13.6 °C 1017.8 hPa Calm     98 % 0.0 mm 53 W/m2
07:45 14.5 °C 14.2 °C 1018.2 hPa Calm     98 % 0.0 mm 46 W/m2
07:50 14.7 °C 14.4 °C 1018.2 hPa Calm     98 % 0.0 mm 58 W/m2
07:55 14.9 °C 14.6 °C 1018.2 hPa Calm   1.6 km/h 98 % 0.0 mm 63 W/m2
08:00 15.3 °C 15.0 °C 1018.2 hPa Calm   1.6 km/h 98 % 0.0 mm 91 W/m2
08:05 15.6 °C 15.2 °C 1018.2 hPa Calm   1.6 km/h 98 % 0.0 mm 98 W/m2
08:10 15.8 °C 15.5 °C 1018.2 hPa Calm   1.6 km/h 98 % 0.0 mm 93 W/m2
08:15 15.9 °C 15.5 °C 1018.2 hPa Calm   1.6 km/h 97 % 0.0 mm 100 W/m2
08:20 16.2 °C 15.9 °C 1018.2 hPa Calm   1.6 km/h 98 % 0.0 mm 105 W/m2
08:30 16.4 °C 15.9 °C 1018.2 hPa Calm     97 % 0.0 mm 123 W/m2
08:35 16.4 °C 16.0 °C 1018.2 hPa SE 1.6 km/h 1.6 km/h 97 % 0.0 mm 134 W/m2
08:40 16.6 °C 16.1 °C 1018.2 hPa Calm   3.2 km/h 97 % 0.0 mm 107 W/m2
08:45 16.8 °C 16.3 °C 1018.2 hPa Calm   3.2 km/h 97 % 0.0 mm 116 W/m2
08:50 16.8 °C 16.3 °C 1018.2 hPa Calm   6.4 km/h 97 % 0.0 mm 188 W/m2
08:55 16.9 °C 16.4 °C 1018.2 hPa NW 3.2 km/h 6.4 km/h 97 % 0.0 mm 162 W/m2
09:00 16.7 °C 16.1 °C 1018.2 hPa Calm   4.8 km/h 96 % 0.0 mm 223 W/m2
09:05 16.9 °C 16.2 °C 1018.2 hPa Calm   4.8 km/h 96 % 0.0 mm 485 W/m2
09:15 17.4 °C 16.7 °C 1017.8 hPa NW 1.6 km/h 6.4 km/h 96 % 0.0 mm 408 W/m2
09:20 17.4 °C 16.4 °C 1018.2 hPa Calm   4.8 km/h 94 % 0.0 mm 445 W/m2
09:25 17.8 °C 16.8 °C 1018.2 hPa NW 3.2 km/h 4.8 km/h 94 % 0.0 mm 455 W/m2
09:30 18.2 °C 17.2 °C 1018.2 hPa NW 4.8 km/h 6.4 km/h 94 % 0.0 mm 459 W/m2
09:35 18.3 °C 16.8 °C 1018.2 hPa Calm   6.4 km/h 91 % 0.0 mm 501 W/m2
09:40 18.8 °C 17.3 °C 1018.2 hPa NW 1.6 km/h 8.0 km/h 91 % 0.0 mm 492 W/m2
09:45 18.7 °C 16.9 °C 1018.2 hPa NW 6.4 km/h 8.0 km/h 89 % 0.0 mm 501 W/m2
09:50 18.9 °C 17.2 °C 1018.2 hPa NNW 4.8 km/h 8.0 km/h 90 % 0.0 mm 517 W/m2
09:55 18.9 °C 16.9 °C 1018.2 hPa Calm   12.9 km/h 88 % 0.0 mm 522 W/m2
10:00 18.6 °C 16.5 °C 1018.2 hPa WNW 3.2 km/h 12.9 km/h 88 % 0.0 mm 510 W/m2
10:05 18.7 °C 16.6 °C 1018.5 hPa NW 6.4 km/h 8.0 km/h 88 % 0.0 mm 262 W/m2
10:10 18.9 °C 17.1 °C 1018.5 hPa NW 3.2 km/h 8.0 km/h 89 % 0.0 mm 638 W/m2
10:15 19.5 °C 17.6 °C 1018.2 hPa WNW 4.8 km/h 8.0 km/h 89 % 0.0 mm 652 W/m2
10:20 19.6 °C 17.5 °C 1018.5 hPa NW 3.2 km/h 8.0 km/h 88 % 0.0 mm 376 W/m2
10:25 19.9 °C 17.7 °C 1018.5 hPa WNW 3.2 km/h 8.0 km/h 87 % 0.0 mm 647 W/m2
10:30 20.4 °C 18.0 °C 1018.2 hPa Calm   8.0 km/h 86 % 0.0 mm 534 W/m2
10:35 20.6 °C 17.9 °C 1018.2 hPa North 4.8 km/h 9.7 km/h 85 % 0.0 mm 374 W/m2
10:45 20.9 °C 18.5 °C 1018.2 hPa West 4.8 km/h 9.7 km/h 86 % 0.0 mm 657 W/m2
10:50 20.9 °C 17.5 °C 1018.2 hPa WSW 6.4 km/h 12.9 km/h 81 % 0.0 mm 744 W/m2
10:55 20.3 °C 17.3 °C 1018.2 hPa WNW 8.0 km/h 12.9 km/h 83 % 0.0 mm 527 W/m2
11:00 20.2 °C 17.4 °C 1018.2 hPa West 4.8 km/h 12.9 km/h 84 % 0.0 mm 404 W/m2
11:05 19.9 °C 17.3 °C 1018.2 hPa WSW 6.4 km/h 12.9 km/h 85 % 0.0 mm 591 W/m2
11:10 19.8 °C 17.2 °C 1018.2 hPa WSW 6.4 km/h 12.9 km/h 85 % 0.0 mm 663 W/m2
11:15 19.9 °C 17.5 °C 1018.2 hPa WSW 6.4 km/h 11.3 km/h 86 % 0.0 mm 1041 W/m2
11:20 20.2 °C 17.4 °C 1018.2 hPa West 4.8 km/h 14.5 km/h 84 % 0.0 mm 346 W/m2
11:30 20.4 °C 17.4 °C 1018.2 hPa WSW 1.6 km/h 14.5 km/h 83 % 0.0 mm 515 W/m2
11:35 20.6 °C 17.4 °C 1018.2 hPa WSW 14.5 km/h 14.5 km/h 82 % 0.0 mm 490 W/m2
11:40 20.3 °C 17.7 °C 1018.2 hPa Calm   14.5 km/h 85 % 0.0 mm 443 W/m2
11:45 20.6 °C 17.6 °C 1018.2 hPa SW 1.6 km/h 16.1 km/h 83 % 0.0 mm 429 W/m2
11:50 20.3 °C 17.5 °C 1018.2 hPa West 9.7 km/h 16.1 km/h 84 % 0.0 mm 461 W/m2
11:55 20.2 °C 17.6 °C 1018.2 hPa NW 9.7 km/h 16.1 km/h 85 % 0.0 mm 482 W/m2
12:00 20.5 °C 17.7 °C 1018.5 hPa WSW 12.9 km/h 16.1 km/h 84 % 0.0 mm 376 W/m2
12:05 20.3 °C 17.7 °C 1018.5 hPa WSW 9.7 km/h 22.5 km/h 85 % 0.0 mm 385 W/m2
12:10 20.1 °C 17.3 °C 1018.5 hPa West 8.0 km/h 22.5 km/h 84 % 0.0 mm 334 W/m2
12:15 20.1 °C 17.7 °C 1018.5 hPa SW 8.0 km/h 17.7 km/h 86 % 0.0 mm 396 W/m2
12:20 20.2 °C 17.6 °C 1018.2 hPa WSW 3.2 km/h 16.1 km/h 85 % 0.0 mm 415 W/m2
12:25 20.4 °C 17.6 °C 1018.2 hPa West 8.0 km/h 16.1 km/h 84 % 0.0 mm 487 W/m2
12:30 21.1 °C 18.2 °C 1018.2 hPa WSW 4.8 km/h 16.1 km/h 84 % 0.0 mm 494 W/m2
12:35 20.8 °C 17.8 °C 1018.5 hPa West 8.0 km/h 16.1 km/h 83 % 0.0 mm 399 W/m2
12:40 20.2 °C 17.4 °C 1018.5 hPa WNW 3.2 km/h 17.7 km/h 84 % 0.0 mm 466 W/m2
12:45 20.5 °C 17.7 °C 1018.5 hPa WSW 3.2 km/h 17.7 km/h 84 % 0.0 mm 492 W/m2
12:50 20.4 °C 17.5 °C 1018.5 hPa West 12.9 km/h 16.1 km/h 83 % 0.0 mm 468 W/m2
13:00 20.3 °C 17.5 °C 1018.5 hPa WSW 11.3 km/h 19.3 km/h 84 % 0.0 mm 461 W/m2
13:05 20.2 °C 17.4 °C 1018.5 hPa WSW 11.3 km/h 19.3 km/h 84 % 0.0 mm 459 W/m2
13:10 20.3 °C 17.9 °C 1018.5 hPa WNW 1.6 km/h 19.3 km/h 86 % 0.0 mm 483 W/m2
13:15 21.2 °C 18.7 °C 1018.5 hPa WNW 8.0 km/h 17.7 km/h 86 % 0.0 mm 483 W/m2
13:20 21.8 °C 18.8 °C 1018.5 hPa SW 8.0 km/h 16.1 km/h 83 % 0.0 mm 691 W/m2
13:25 21.5 °C 18.1 °C 1018.5 hPa West 9.7 km/h 16.1 km/h 81 % 0.0 mm 891 W/m2
13:30 21.6 °C 18.2 °C 1018.5 hPa SW 16.1 km/h 20.9 km/h 81 % 0.0 mm 891 W/m2
13:35 21.4 °C 18.2 °C 1018.5 hPa WNW 3.2 km/h 20.9 km/h 82 % 0.0 mm 606 W/m2
13:45 21.0 °C 17.8 °C 1018.5 hPa West 8.0 km/h 20.9 km/h 82 % 0.0 mm 561 W/m2
13:50 21.7 °C 18.3 °C 1018.5 hPa SW 8.0 km/h 17.7 km/h 81 % 0.0 mm 645 W/m2
13:55 21.6 °C 17.6 °C 1018.5 hPa West 14.5 km/h 17.7 km/h 78 % 0.0 mm 960 W/m2
14:00 21.8 °C 18.4 °C 1018.5 hPa WSW 6.4 km/h 16.1 km/h 81 % 0.0 mm 849 W/m2
14:05 22.1 °C 18.2 °C 1018.5 hPa WNW 4.8 km/h 19.3 km/h 79 % 0.0 mm 823 W/m2
14:10 21.7 °C 18.3 °C 1018.5 hPa NNW 11.3 km/h 19.3 km/h 81 % 0.0 mm 1127 W/m2
14:15 22.3 °C 18.7 °C 1018.5 hPa WSW 14.5 km/h 19.3 km/h 80 % 0.0 mm 904 W/m2
14:20 21.4 °C 18.0 °C 1018.5 hPa WNW 20.9 km/h 22.5 km/h 81 % 0.0 mm 983 W/m2
14:25 20.9 °C 17.9 °C 1018.5 hPa West 20.9 km/h 24.1 km/h 83 % 0.0 mm 1063 W/m2
14:30 21.4 °C 18.4 °C 1018.5 hPa West 9.7 km/h 24.1 km/h 83 % 0.0 mm 555 W/m2
14:35 21.6 °C 18.5 °C 1018.5 hPa West 8.0 km/h 22.5 km/h 83 % 0.0 mm 802 W/m2
14:40 21.6 °C 18.4 °C 1018.5 hPa WSW 19.3 km/h 20.9 km/h 82 % 0.0 mm 633 W/m2
14:45 20.8 °C 17.6 °C 1018.8 hPa NW 3.2 km/h 24.1 km/h 82 % 0.0 mm 504 W/m2
14:50 20.9 °C 18.1 °C 1018.8 hPa WSW 11.3 km/h 24.1 km/h 84 % 0.0 mm 480 W/m2
14:55 21.1 °C 18.3 °C 1018.8 hPa WSW 16.1 km/h 22.5 km/h 84 % 0.0 mm 510 W/m2
15:05 20.9 °C 18.3 °C 1018.8 hPa NW 8.0 km/h 25.7 km/h 85 % 0.0 mm 613 W/m2
15:10 21.2 °C 18.7 °C 1018.8 hPa NW 16.1 km/h 22.5 km/h 86 % 0.0 mm 977 W/m2
15:15 21.7 °C 18.7 °C 1018.8 hPa WNW 9.7 km/h 22.5 km/h 83 % 0.0 mm 782 W/m2
15:20 22.1 °C 19.2 °C 1018.5 hPa West 8.0 km/h 19.3 km/h 84 % 0.0 mm 619 W/m2
15:25 21.4 °C 18.2 °C 1018.5 hPa West 11.3 km/h 22.5 km/h 82 % 0.0 mm 561 W/m2
15:30 20.6 °C 18.1 °C 1018.2 hPa WNW 8.0 km/h 22.5 km/h 86 % 0.0 mm 487 W/m2
15:35 20.3 °C 17.7 °C 1018.5 hPa WSW 11.3 km/h 20.9 km/h 85 % 0.0 mm 443 W/m2
15:40 20.1 °C 17.7 °C 1018.5 hPa NW 9.7 km/h 20.9 km/h 86 % 0.0 mm 399 W/m2
15:45 20.3 °C 18.0 °C 1018.2 hPa WNW 14.5 km/h 20.9 km/h 87 % 0.0 mm 383 W/m2
15:50 20.1 °C 17.8 °C 1018.2 hPa West 8.0 km/h 17.7 km/h 87 % 0.0 mm 360 W/m2
15:55 19.9 °C 17.9 °C 1018.5 hPa West 17.7 km/h 19.3 km/h 88 % 0.0 mm 332 W/m2
16:00 19.7 °C 17.7 °C 1018.5 hPa West 12.9 km/h 24.1 km/h 88 % 0.0 mm 316 W/m2
16:05 19.7 °C 17.8 °C 1018.2 hPa WNW 4.8 km/h 24.1 km/h 89 % 0.0 mm 352 W/m2
16:10 20.0 °C 18.0 °C 1018.5 hPa SW 9.7 km/h 17.7 km/h 88 % 0.0 mm 374 W/m2
16:15 19.9 °C 17.7 °C 1018.5 hPa West 4.8 km/h 20.9 km/h 87 % 0.0 mm 357 W/m2
16:20 20.1 °C 18.1 °C 1018.5 hPa WSW 4.8 km/h 20.9 km/h 88 % 0.0 mm 388 W/m2
16:25 20.1 °C 17.8 °C 1018.5 hPa WSW 12.9 km/h 17.7 km/h 87 % 0.0 mm 373 W/m2
16:30 19.9 °C 17.5 °C 1018.5 hPa WSW 8.0 km/h 19.3 km/h 86 % 0.0 mm 322 W/m2
16:35 20.0 °C 17.8 °C 1018.5 hPa WSW 9.7 km/h 19.3 km/h 87 % 0.0 mm 390 W/m2
16:45 20.3 °C 17.9 °C 1018.5 hPa SW 9.7 km/h 22.5 km/h 86 % 0.0 mm 506 W/m2
16:50 21.1 °C 18.4 °C 1018.5 hPa West 17.7 km/h 20.9 km/h 85 % 0.0 mm 438 W/m2
16:55 20.3 °C 17.1 °C 1018.5 hPa West 8.0 km/h 22.5 km/h 82 % 0.0 mm 357 W/m2
17:00 19.8 °C 17.2 °C 1018.2 hPa West 6.4 km/h 22.5 km/h 85 % 0.0 mm 283 W/m2
17:05 19.7 °C 17.1 °C 1018.5 hPa WSW 16.1 km/h 22.5 km/h 85 % 0.0 mm 401 W/m2
17:10 20.0 °C 17.6 °C 1018.5 hPa WNW 25.7 km/h 25.7 km/h 86 % 0.0 mm 420 W/m2
17:15 19.9 °C 17.1 °C 1018.5 hPa West 9.7 km/h 25.7 km/h 84 % 0.0 mm 805 W/m2
17:20 20.1 °C 17.1 °C 1018.5 hPa West 8.0 km/h 25.7 km/h 83 % 0.0 mm 744 W/m2
17:25 20.2 °C 17.4 °C 1018.5 hPa West 6.4 km/h 24.1 km/h 84 % 0.0 mm 744 W/m2
17:30 20.7 °C 17.9 °C 1018.5 hPa NW 6.4 km/h 22.5 km/h 84 % 0.0 mm 640 W/m2
17:35 21.1 °C 17.5 °C 1018.5 hPa WNW 9.7 km/h 19.3 km/h 80 % 0.0 mm 675 W/m2
17:40 20.8 °C 17.5 °C 1018.5 hPa West 11.3 km/h 19.3 km/h 81 % 0.0 mm 336 W/m2
17:45 20.6 °C 16.2 °C 1018.5 hPa WSW 12.9 km/h 20.9 km/h 76 % 0.0 mm 269 W/m2
17:50 20.3 °C 16.0 °C 1018.5 hPa NW 9.7 km/h 20.9 km/h 76 % 0.0 mm 552 W/m2
17:55 21.2 °C 15.3 °C 1018.5 hPa WNW 8.0 km/h 17.7 km/h 69 % 0.0 mm 610 W/m2
18:00 21.3 °C 14.9 °C 1018.5 hPa WNW 4.8 km/h 17.7 km/h 67 % 0.0 mm 568 W/m2
18:05 21.7 °C 14.3 °C 1018.5 hPa West 14.5 km/h 17.7 km/h 63 % 0.0 mm 552 W/m2
18:10 21.7 °C 14.4 °C 1018.5 hPa WNW 6.4 km/h 17.7 km/h 63 % 0.0 mm 478 W/m2
18:15 21.0 °C 13.7 °C 1018.5 hPa West 4.8 km/h 19.3 km/h 63 % 0.0 mm 290 W/m2
18:20 20.9 °C 14.5 °C 1018.5 hPa NNW 4.8 km/h 19.3 km/h 67 % 0.0 mm 369 W/m2
18:25 20.9 °C 13.6 °C 1018.5 hPa West 6.4 km/h 19.3 km/h 63 % 0.0 mm 555 W/m2
18:30 21.0 °C 13.2 °C 1018.5 hPa West 6.4 km/h 19.3 km/h 61 % 0.0 mm 466 W/m2
18:40 20.7 °C 13.4 °C 1018.5 hPa WNW 12.9 km/h 19.3 km/h 63 % 0.0 mm 476 W/m2
18:45 20.4 °C 12.6 °C 1018.5 hPa WNW 8.0 km/h 24.1 km/h 61 % 0.0 mm 385 W/m2
18:50 20.3 °C 13.0 °C 1018.5 hPa WNW 12.9 km/h 24.1 km/h 63 % 0.0 mm 459 W/m2
18:55 20.4 °C 11.8 °C 1018.5 hPa WNW 6.4 km/h 24.1 km/h 58 % 0.0 mm 371 W/m2
19:00 20.4 °C 13.1 °C 1018.5 hPa WNW 16.1 km/h 22.5 km/h 63 % 0.0 mm 399 W/m2
19:05 20.3 °C 12.6 °C 1018.5 hPa WNW 14.5 km/h 22.5 km/h 61 % 0.0 mm 381 W/m2
19:10 20.3 °C 12.5 °C 1018.5 hPa WNW 17.7 km/h 22.5 km/h 61 % 0.0 mm 373 W/m2
19:15 20.3 °C 13.1 °C 1018.5 hPa WSW 11.3 km/h 22.5 km/h 63 % 0.0 mm 359 W/m2
19:20 20.4 °C 13.6 °C 1018.5 hPa West 8.0 km/h 19.3 km/h 65 % 0.0 mm 348 W/m2
19:25 20.3 °C 13.5 °C 1018.5 hPa WNW 14.5 km/h 24.1 km/h 65 % 0.0 mm 329 W/m2
19:30 19.8 °C 13.1 °C 1018.5 hPa NW 17.7 km/h 27.4 km/h 65 % 0.0 mm 315 W/m2
19:35 19.6 °C 13.3 °C 1018.5 hPa WNW 12.9 km/h 27.4 km/h 67 % 0.0 mm 294 W/m2
19:40 19.6 °C 13.7 °C 1018.8 hPa West 9.7 km/h 22.5 km/h 69 % 0.0 mm 264 W/m2
19:45 19.4 °C 12.9 °C 1018.8 hPa NNW 1.6 km/h 27.4 km/h 66 % 0.0 mm 237 W/m2
19:50 19.2 °C 12.5 °C 1018.8 hPa West 9.7 km/h 29.0 km/h 65 % 0.0 mm 213 W/m2
19:55 19.2 °C 12.7 °C 1018.8 hPa NNW 9.7 km/h 29.0 km/h 66 % 0.0 mm 199 W/m2
20:00 19.1 °C 13.2 °C 1018.8 hPa NW 8.0 km/h 25.7 km/h 69 % 0.0 mm 186 W/m2
20:05 18.9 °C 13.1 °C 1018.8 hPa West 12.9 km/h 25.7 km/h 69 % 0.0 mm 179 W/m2
20:10 18.7 °C 13.1 °C 1018.8 hPa NW 9.7 km/h 27.4 km/h 70 % 0.0 mm 174 W/m2
20:15 18.7 °C 13.6 °C 1018.8 hPa NW 8.0 km/h 27.4 km/h 72 % 0.0 mm 155 W/m2
20:20 18.6 °C 13.7 °C 1018.8 hPa WNW 3.2 km/h 22.5 km/h 73 % 0.0 mm 135 W/m2
20:30 18.3 °C 13.2 °C 1018.8 hPa WNW 12.9 km/h 29.0 km/h 72 % 0.0 mm 109 W/m2
20:35 18.2 °C 13.0 °C 1018.8 hPa West 8.0 km/h 19.3 km/h 72 % 0.0 mm 47 W/m2
20:40 18.0 °C 13.1 °C 1018.8 hPa NW 14.5 km/h 22.5 km/h 73 % 0.0 mm 33 W/m2
20:45 17.8 °C 13.1 °C 1019.2 hPa WNW 16.1 km/h 24.1 km/h 74 % 0.0 mm 32 W/m2
20:50 17.6 °C 12.9 °C 1018.8 hPa West 6.4 km/h 24.1 km/h 74 % 0.0 mm 28 W/m2
20:55 17.4 °C 13.2 °C 1019.2 hPa WNW 9.7 km/h 25.7 km/h 76 % 0.0 mm 26 W/m2
21:00 17.3 °C 13.1 °C 1019.2 hPa WNW 12.9 km/h 25.7 km/h 76 % 0.0 mm 25 W/m2
21:05 17.2 °C 13.0 °C 1019.2 hPa West 9.7 km/h 24.1 km/h 76 % 0.0 mm 23 W/m2
21:15 17.1 °C 12.6 °C 1019.2 hPa West 12.9 km/h 22.5 km/h 75 % 0.0 mm 19 W/m2
21:20 17.0 °C 12.5 °C 1019.2 hPa WSW 8.0 km/h 25.7 km/h 75 % 0.0 mm 18 W/m2
21:25 16.9 °C 12.6 °C 1019.2 hPa NW 9.7 km/h 25.7 km/h 76 % 0.0 mm 16 W/m2
21:30 16.8 °C 12.5 °C 1019.2 hPa West 8.0 km/h 17.7 km/h 76 % 0.0 mm 14 W/m2
21:35 16.8 °C 12.3 °C 1019.2 hPa West 17.7 km/h 19.3 km/h 75 % 0.0 mm 12 W/m2
21:40 16.7 °C 12.2 °C 1019.2 hPa NNW 9.7 km/h 20.9 km/h 75 % 0.0 mm 11 W/m2
21:45 16.6 °C 12.0 °C 1019.2 hPa WNW 17.7 km/h 20.9 km/h 74 % 0.0 mm 9 W/m2
21:50 16.6 °C 11.7 °C 1019.2 hPa WNW 8.0 km/h 20.9 km/h 73 % 0.0 mm 7 W/m2
21:55 16.4 °C 11.7 °C 1019.2 hPa WNW 19.3 km/h 20.9 km/h 74 % 0.0 mm 5 W/m2
22:00 16.4 °C 11.7 °C 1019.5 hPa WNW 12.9 km/h 19.3 km/h 74 % 0.0 mm 5 W/m2
22:05 16.3 °C 11.6 °C 1019.5 hPa WNW 9.7 km/h 20.9 km/h 74 % 0.0 mm 0 W/m2
22:15 16.1 °C 11.8 °C 1019.5 hPa WNW 4.8 km/h 24.1 km/h 76 % 0.0 mm 0 W/m2
22:20 15.9 °C 12.1 °C 1019.5 hPa West 4.8 km/h 20.9 km/h 78 % 0.0 mm 0 W/m2
22:25 15.9 °C 12.1 °C 1019.9 hPa WNW 14.5 km/h 20.9 km/h 78 % 0.0 mm 0 W/m2
22:30 15.8 °C 12.2 °C 1019.9 hPa West 6.4 km/h 20.9 km/h 79 % 0.0 mm 0 W/m2
22:35 15.8 °C 12.3 °C 1019.9 hPa NW 11.3 km/h 20.9 km/h 80 % 0.0 mm 0 W/m2
22:40 15.7 °C 12.5 °C 1019.9 hPa WNW 8.0 km/h 20.9 km/h 81 % 0.0 mm 0 W/m2
22:45 15.6 °C 12.5 °C 1019.9 hPa NNW 16.1 km/h 19.3 km/h 82 % 0.0 mm 0 W/m2
22:50 15.5 °C 12.8 °C 1019.9 hPa West 6.4 km/h 20.9 km/h 84 % 0.0 mm 0 W/m2
22:55 15.6 °C 12.9 °C 1020.2 hPa NW 12.9 km/h 20.9 km/h 84 % 0.0 mm 0 W/m2
23:00 15.4 °C 12.9 °C 1020.2 hPa WNW 11.3 km/h 20.9 km/h 85 % 0.0 mm 0 W/m2
23:05 15.4 °C 12.9 °C 1020.2 hPa North 9.7 km/h 20.9 km/h 85 % 0.0 mm 0 W/m2
23:10 15.3 °C 12.8 °C 1020.2 hPa WNW 8.0 km/h 20.9 km/h 85 % 0.0 mm 0 W/m2
23:15 15.2 °C 12.8 °C 1020.2 hPa NNW 9.7 km/h 20.9 km/h 86 % 0.0 mm 0 W/m2
23:20 15.1 °C 13.0 °C 1020.2 hPa WNW 12.9 km/h 20.9 km/h 87 % 0.0 mm 0 W/m2
23:25 15.1 °C 13.0 °C 1020.2 hPa WNW 8.0 km/h 17.7 km/h 87 % 0.0 mm 0 W/m2
23:30 15.1 °C 12.9 °C 1020.2 hPa NW 8.0 km/h 16.1 km/h 87 % 0.0 mm 0 W/m2
23:35 14.9 °C 12.8 °C 1020.2 hPa NNW 4.8 km/h 16.1 km/h 87 % 0.0 mm 0 W/m2
23:40 14.9 °C 13.0 °C 1020.2 hPa NW 3.2 km/h 19.3 km/h 88 % 0.0 mm 0 W/m2
23:45 14.8 °C 12.9 °C 1020.5 hPa NW 11.3 km/h 19.3 km/h 88 % 0.0 mm 0 W/m2
23:50 14.8 °C 12.9 °C 1020.5 hPa WNW 3.2 km/h 16.1 km/h 88 % 0.0 mm 0 W/m2
23:55 14.8 °C 13.0 °C 1020.5 hPa WNW 6.4 km/h 16.1 km/h 89 % 0.0 mm 0 W/m2
Avec l'autorisation de Weather Underground - 1.75 mb